Time;durP1;ratioP1;P1;durP2;ratioP2;P2;SDS_P1;SDS_P2;PMS_P1;PMS_P2;Temp;Humidity;BMP_temperature;BMP_pressure;BME280_temperature;BME280_humidity;BME280_pressure;Samples;Min_cycle;Max_cycle;Signal;HPM_P1;HPM_P2
2023/05/14 00:02:11;;;;;;;11.60;4.50;;;;;;;20.69;41.55;101863.25;16117917;19;131406;-40
2023/05/14 00:07:33;;;;;;;15.75;4.18;;;;;;;20.68;41.09;101850.44;16116625;19;129980;-39
2023/05/14 00:12:55;;;;;;;8.80;4.20;;;;;;;20.67;41.43;101850.69;16114763;19;129553;-39
2023/05/14 00:18:17;;;;;;;9.40;4.50;;;;;;;20.65;41.34;101850.06;16117989;19;129796;-39
2023/05/14 00:23:39;;;;;;;10.85;4.32;;;;;;;20.64;41.63;101843.66;16120376;19;130137;-40
2023/05/14 00:29:00;;;;;;;9.27;4.10;;;;;;;20.63;41.35;101841.13;16121209;19;129399;-39
2023/05/14 00:34:23;;;;;;;11.27;3.85;;;;;;;20.63;41.59;101843.91;16116387;19;133594;-38
2023/05/14 00:39:45;;;;;;;8.73;4.13;;;;;;;20.62;41.11;101847.75;16117643;19;130692;-39
2023/05/14 00:45:07;;;;;;;9.52;4.70;;;;;;;20.59;41.34;101836.03;16121915;19;131047;-39
2023/05/14 00:50:30;;;;;;;8.45;4.70;;;;;;;20.58;41.38;101825.16;16120918;19;129481;-41
2023/05/14 00:55:52;;;;;;;8.32;4.60;;;;;;;20.55;41.40;101826.50;16122264;19;129818;-39
2023/05/14 01:01:14;;;;;;;7.05;4.47;;;;;;;20.54;41.52;101822.00;16116502;19;130647;-40
2023/05/14 01:06:50;;;;;;;10.07;4.28;;;;;;;20.54;41.63;101819.22;16116582;19;129602;-39
2023/05/14 01:12:15;;;;;;;7.47;4.47;;;;;;;20.52;41.14;101815.84;16118371;19;130717;-49
2023/05/14 01:17:42;;;;;;;10.82;4.57;;;;;;;20.53;41.10;101823.09;16116241;19;131245;-49
2023/05/14 01:23:04;;;;;;;11.05;4.75;;;;;;;20.51;41.10;101813.28;16117138;19;130206;-48
2023/05/14 01:28:31;;;;;;;9.35;4.80;;;;;;;20.52;41.30;101813.06;16115772;19;129587;-40
2023/05/14 01:33:56;;;;;;;9.10;4.50;;;;;;;20.50;41.11;101815.22;16116426;19;129360;-39
2023/05/14 01:39:18;;;;;;;11.32;4.43;;;;;;;20.48;40.95;101811.81;16115814;19;130621;-38
2023/05/14 01:44:41;;;;;;;7.05;4.03;;;;;;;20.48;41.53;101811.81;16110513;19;132456;-39
2023/05/14 01:50:04;;;;;;;7.70;4.10;;;;;;;20.45;41.27;101813.16;16110876;19;130062;-39
2023/05/14 01:55:26;;;;;;;6.10;4.15;;;;;;;20.45;41.21;101820.63;16108675;19;129939;-40
2023/05/14 02:00:48;;;;;;;9.10;4.30;;;;;;;20.45;41.37;101815.94;16113170;19;129471;-38
2023/05/14 02:06:10;;;;;;;9.02;4.18;;;;;;;20.44;41.13;101807.81;16110572;19;129646;-40
2023/05/14 02:11:35;;;;;;;5.68;3.85;;;;;;;20.42;41.36;101812.78;16110356;19;131117;-39
2023/05/14 02:16:57;;;;;;;10.27;4.40;;;;;;;20.42;41.57;101808.06;16113974;19;130844;-38
2023/05/14 02:22:18;;;;;;;5.45;3.75;;;;;;;20.41;41.29;101805.53;16109126;19;130284;-38
2023/05/14 02:27:40;;;;;;;7.68;3.92;;;;;;;20.40;41.49;101806.63;16107866;19;130301;-39
2023/05/14 02:33:02;;;;;;;5.85;3.80;;;;;;;20.39;41.59;101810.47;16113706;19;130774;-39
2023/05/14 02:38:25;;;;;;;6.80;3.83;;;;;;;20.39;41.39;101807.69;16107261;19;131955;-39
2023/05/14 02:43:47;;;;;;;5.55;3.70;;;;;;;20.38;41.44;101817.13;16115084;19;129462;-38
2023/05/14 02:49:09;;;;;;;7.18;3.88;;;;;;;20.38;41.63;101811.56;16107631;19;130415;-39
2023/05/14 02:54:31;;;;;;;6.13;3.63;;;;;;;20.37;41.52;101812.63;16108337;19;130380;-42
2023/05/14 02:59:53;;;;;;;6.85;3.33;;;;;;;20.36;41.32;101808.16;16110966;19;130746;-42
2023/05/14 03:05:15;;;;;;;8.40;3.83;;;;;;;20.34;41.74;101799.22;16108948;19;129517;-39
2023/05/14 03:10:37;;;;;;;6.70;3.90;;;;;;;20.34;41.73;101804.78;16108977;19;130173;-38
2023/05/14 03:15:59;;;;;;;5.38;3.88;;;;;;;20.34;41.74;101805.63;16105604;19;130036;-38
2023/05/14 03:21:21;;;;;;;4.53;3.22;;;;;;;20.32;41.55;101802.25;16109733;19;129511;-39
2023/05/14 03:26:43;;;;;;;4.30;3.22;;;;;;;20.32;41.41;101809.72;16109461;19;131965;-40
2023/05/14 03:32:05;;;;;;;4.43;3.13;;;;;;;20.32;41.79;101793.03;16106132;19;130137;-38
2023/05/14 03:37:27;;;;;;;6.28;2.95;;;;;;;20.29;41.89;101792.47;16107840;19;132310;-39
2023/05/14 03:42:49;;;;;;;3.58;3.00;;;;;;;20.29;41.90;101795.22;16106012;19;129732;-39
2023/05/14 03:48:10;;;;;;;5.18;2.75;;;;;;;20.28;41.76;101785.19;16104540;19;130845;-39
2023/05/14 03:53:32;;;;;;;4.65;3.00;;;;;;;20.27;41.77;101789.06;16105921;19;130448;-39
2023/05/14 03:58:54;;;;;;;3.70;3.03;;;;;;;20.26;41.99;101798.47;16108570;19;130850;-40
2023/05/14 04:04:16;;;;;;;4.53;3.00;;;;;;;20.27;42.00;101790.97;16102861;19;131392;-39
2023/05/14 04:09:38;;;;;;;4.40;2.75;;;;;;;20.24;41.68;101792.31;16110794;19;129461;-39
2023/05/14 04:15:00;;;;;;;3.70;2.60;;;;;;;20.24;42.07;101789.53;16117276;19;130694;-39
2023/05/14 04:20:22;;;;;;;3.53;2.60;;;;;;;20.23;42.06;101793.38;16118938;19;130427;-39
2023/05/14 04:25:44;;;;;;;4.72;3.08;;;;;;;20.22;41.66;101794.47;16110679;19;130877;-41
2023/05/14 04:31:07;;;;;;;5.80;3.15;;;;;;;20.21;41.92;101798.31;16112881;19;129495;-41
2023/05/14 04:36:28;;;;;;;4.18;3.08;;;;;;;20.21;42.16;101794.72;16116275;19;130823;-41
2023/05/14 04:41:50;;;;;;;3.63;2.78;;;;;;;20.21;41.97;101800.28;16110621;19;129919;-39
2023/05/14 04:47:12;;;;;;;4.30;2.88;;;;;;;20.19;41.86;101791.31;16113721;19;131099;-39
2023/05/14 04:52:34;;;;;;;2.92;2.63;;;;;;;20.18;42.19;101793.25;16112902;19;129460;-41
2023/05/14 04:57:56;;;;;;;4.97;3.40;;;;;;;20.18;42.00;101793.25;16119684;19;132843;-38
2023/05/14 05:03:18;;;;;;;4.07;3.20;;;;;;;20.18;41.77;101793.25;16109115;19;129777;-38
2023/05/14 05:08:40;;;;;;;3.50;2.70;;;;;;;20.17;42.03;101805.47;16113820;19;130348;-42
2023/05/14 05:14:02;;;;;;;3.92;3.08;;;;;;;20.16;41.76;101809.31;16115025;19;129568;-39
2023/05/14 05:19:24;;;;;;;5.10;3.90;;;;;;;20.15;41.71;101804.84;16110358;19;132235;-39
2023/05/14 05:25:00;;;;;;;3.53;3.17;;;;;;;20.16;42.20;101808.44;16115261;19;130865;-39
2023/05/14 05:30:22;;;;;;;5.53;3.33;;;;;;;20.14;42.15;101811.47;16113967;19;130106;-40
2023/05/14 05:35:44;;;;;;;4.20;3.22;;;;;;;20.13;41.96;101810.59;16116610;19;129659;-38
2023/05/14 05:41:06;;;;;;;6.65;3.65;;;;;;;20.12;42.02;101802.53;16112195;19;132023;-39
2023/05/14 05:46:28;;;;;;;4.85;3.13;;;;;;;20.12;42.13;101813.63;16113825;19;130903;-39
2023/05/14 05:51:50;;;;;;;3.67;3.10;;;;;;;20.18;42.35;101812.72;16114964;19;130351;-39
2023/05/14 05:57:11;;;;;;;3.53;2.90;;;;;;;20.26;42.10;101806.81;16113775;19;131842;-40
2023/05/14 06:02:33;;;;;;;4.20;2.92;;;;;;;20.32;42.18;101810.56;16111516;19;130523;-41
2023/05/14 06:07:55;;;;;;;3.95;2.90;;;;;;;20.36;41.72;101813.72;16106509;19;130040;-39
2023/05/14 06:13:17;;;;;;;3.83;3.10;;;;;;;20.38;42.08;101811.56;16105370;19;131545;-41
2023/05/14 06:18:39;;;;;;;5.80;2.70;;;;;;;20.37;41.74;101815.41;16106474;19;129832;-42
2023/05/14 06:24:01;;;;;;;4.63;3.05;;;;;;;20.35;41.86;101815.66;16104527;19;129931;-39
2023/05/14 06:29:24;;;;;;;3.97;3.30;;;;;;;20.34;42.01;101824.22;16110530;19;130600;-39
2023/05/14 06:34:45;;;;;;;5.20;3.40;;;;;;;20.33;41.96;101836.41;16105016;19;131174;-38
2023/05/14 06:40:08;;;;;;;5.50;3.47;;;;;;;20.31;41.68;101849.72;16114397;19;133766;-39
2023/05/14 06:45:29;;;;;;;6.80;4.55;;;;;;;20.28;41.86;101834.34;16109653;19;131236;-38
2023/05/14 06:50:54;;;;;;;4.25;3.13;;;;;;;20.27;41.90;101835.44;16113399;19;130721;-38
2023/05/14 06:56:16;;;;;;;5.85;4.22;;;;;;;20.26;41.89;101825.41;16110289;19;130187;-40
2023/05/14 07:01:37;;;;;;;5.55;3.97;;;;;;;20.23;42.01;101823.94;16109803;19;129475;-39
2023/05/14 07:06:59;;;;;;;4.85;3.70;;;;;;;20.21;41.83;101823.31;16103083;19;131864;-39
2023/05/14 07:12:21;;;;;;;6.50;4.38;;;;;;;20.33;41.71;101825.31;16107473;19;130720;-37
2023/05/14 07:17:44;;;;;;;9.48;4.43;;;;;;;20.43;41.68;101820.03;16105295;19;130658;-38
2023/05/14 07:23:05;;;;;;;7.10;3.45;;;;;;;20.55;41.29;101832.06;16107941;19;130784;-38
2023/05/14 07:28:27;;;;;;;11.10;4.63;;;;;;;20.68;41.28;101828.19;16110694;19;130601;-38
2023/05/14 07:33:49;;;;;;;8.48;4.88;;;;;;;20.77;40.92;101825.09;16107535;19;129026;-38
2023/05/14 07:39:11;;;;;;;11.63;5.72;;;;;;;20.84;41.10;101818.34;16103550;19;131797;-38
2023/05/14 07:44:33;;;;;;;11.32;5.57;;;;;;;20.89;40.71;101817.63;16111394;19;131445;-38
2023/05/14 07:49:56;;;;;;;12.15;6.13;;;;;;;20.90;41.09;101805.41;16117255;19;130056;-40
2023/05/14 07:55:18;;;;;;;15.55;6.38;;;;;;;20.93;40.92;101806.84;16123248;19;130041;-39
2023/05/14 08:00:40;;;;;;;12.73;5.95;;;;;;;21.01;40.87;101809.28;16123195;19;131372;-39
2023/05/14 08:06:02;;;;;;;16.10;6.50;;;;;;;21.05;40.80;101804.91;16121422;19;131073;-41
2023/05/14 08:11:25;;;;;;;16.13;6.32;;;;;;;21.11;40.64;101815.09;16124017;19;129858;-41
2023/05/14 08:16:47;;;;;;;10.50;6.00;;;;;;;21.13;40.46;101812.91;16120258;19;129839;-41
2023/05/14 08:22:09;;;;;;;10.48;5.70;;;;;;;21.12;40.56;101818.72;16123871;19;130051;-39
2023/05/14 08:27:31;;;;;;;18.85;6.38;;;;;;;21.11;40.41;101803.97;16123191;19;131266;-40
2023/05/14 08:32:53;;;;;;;14.23;6.07;;;;;;;21.12;40.82;101805.66;16123211;19;130260;-41
2023/05/14 08:38:15;;;;;;;13.25;5.32;;;;;;;21.14;40.68;101809.06;16117262;19;130013;-39
2023/05/14 08:44:10;;;;;;;12.40;6.38;;;;;;;21.19;40.62;101800.81;16112027;19;130725;-41
2023/05/14 08:49:39;;;;;;;12.75;6.40;;;;;;;21.18;40.85;101793.53;16116778;19;131299;-39
2023/05/14 08:55:05;;;;;;;14.60;7.20;;;;;;;21.15;40.76;101787.63;16111687;19;131146;-39
2023/05/14 09:00:27;;;;;;;;;;;;;;;21.04;40.82;101787.41;16121635;19;130153;-39
2023/05/14 09:05:50;;;;;;;15.52;10.70;;;;;;;21.01;40.76;101798.16;16123129;19;130199;-39
2023/05/14 09:11:12;;;;;;;16.30;10.60;;;;;;;20.95;40.59;101783.28;16120051;19;130062;-39
2023/05/14 09:16:35;;;;;;;17.45;12.00;;;;;;;20.95;40.73;101782.44;16119611;19;130307;-39
2023/05/14 09:22:00;;;;;;;23.15;11.50;;;;;;;20.93;40.69;101776.25;16112344;19;130435;-44
2023/05/14 09:27:24;;;;;;;29.05;11.55;;;;;;;20.96;40.35;101773.00;16115705;19;131127;-40
2023/05/14 09:32:48;;;;;;;31.65;11.73;;;;;;;21.02;40.69;101777.59;16112741;19;130980;-39
2023/05/14 09:38:10;;;;;;;24.73;11.27;;;;;;;21.06;40.46;101767.66;16112505;19;129487;-40
2023/05/14 09:43:32;;;;;;;22.88;10.38;;;;;;;21.08;40.73;101765.50;16113915;19;129842;-39
2023/05/14 09:48:55;;;;;;;22.63;9.70;;;;;;;21.10;40.55;101774.44;16110198;19;129537;-41
2023/05/14 09:54:17;;;;;;;24.27;9.77;;;;;;;21.12;40.66;101772.28;16113877;19;131413;-42
2023/05/14 09:59:39;;;;;;;23.08;9.25;;;;;;;21.12;40.38;101766.72;16119424;19;129914;-39
2023/05/14 10:05:04;;;;;;;24.60;9.70;;;;;;;21.12;40.38;101750.00;16111525;19;131126;-39
2023/05/14 10:10:29;;;;;;;17.20;9.20;;;;;;;21.14;40.89;101753.41;16112481;19;129916;-40
2023/05/14 10:16:01;;;;;;;30.02;9.48;;;;;;;21.16;41.19;101748.44;16114980;19;130284;-40
2023/05/14 10:21:27;;;;;;;28.58;8.90;;;;;;;21.17;41.06;101740.94;16117318;19;131639;-42
2023/05/14 10:26:49;;;;;;;21.70;9.18;;;;;;;21.18;41.70;101740.69;16116493;19;129537;-41
2023/05/14 10:32:13;;;;;;;19.45;8.50;;;;;;;21.19;41.69;101735.97;16111550;19;131289;-39
2023/05/14 10:37:35;;;;;;;19.98;8.45;;;;;;;21.20;42.06;101730.16;16112849;19;130505;-39
2023/05/14 10:42:58;;;;;;;18.15;8.32;;;;;;;21.21;41.76;101737.41;16113631;19;130449;-39
2023/05/14 10:48:20;;;;;;;16.73;8.43;;;;;;;21.24;42.41;101724.09;16113946;19;131568;-40
2023/05/14 10:53:42;;;;;;;17.67;9.00;;;;;;;21.25;42.35;101723.84;16112137;19;130545;-40
2023/05/14 10:59:05;;;;;;;18.40;8.93;;;;;;;21.26;42.44;101719.16;16112587;19;130231;-39
2023/05/14 11:04:27;;;;;;;19.05;8.88;;;;;;;21.24;42.55;101710.19;16112619;19;130664;-39
2023/05/14 11:09:50;;;;;;;20.88;9.68;;;;;;;21.22;42.63;101711.28;16108071;19;130322;-39
2023/05/14 11:15:19;;;;;;;18.60;8.27;;;;;;;21.24;42.66;101704.63;16104718;19;129595;-40
2023/05/14 11:20:41;;;;;;;14.23;8.65;;;;;;;21.22;42.31;101702.94;16120356;19;131731;-39
2023/05/14 11:26:03;;;;;;;14.38;8.32;;;;;;;21.21;42.21;101701.25;16122164;19;130720;-40
2023/05/14 11:31:26;;;;;;;16.30;9.63;;;;;;;21.20;42.17;101690.38;16121532;19;130652;-40
2023/05/14 11:36:48;;;;;;;12.57;10.23;;;;;;;21.19;41.97;101689.50;16124788;19;130005;-39
2023/05/14 11:42:13;;;;;;;13.77;10.65;;;;;;;21.18;42.09;101679.47;16123608;19;130624;-38
2023/05/14 11:47:35;;;;;;;19.33;10.85;;;;;;;21.21;42.08;101672.59;16117935;19;130473;-38
2023/05/14 11:52:57;;;;;;;13.10;11.40;;;;;;;21.25;42.29;101662.63;16123489;19;130660;-38
2023/05/14 11:58:20;;;;;;;24.80;11.65;;;;;;;21.28;41.72;101664.09;16124150;19;129320;-38
2023/05/14 12:03:42;;;;;;;15.18;10.77;;;;;;;21.32;41.79;101668.06;16120714;19;131800;-44
2023/05/14 12:09:05;;;;;;;18.88;10.77;;;;;;;21.35;41.45;101662.00;16119625;19;129830;-40
2023/05/14 12:14:27;;;;;;;16.60;10.60;;;;;;;21.37;41.67;101663.44;16118047;19;131514;-38
2023/05/14 12:19:50;;;;;;;18.42;10.35;;;;;;;21.41;41.25;101652.69;16118150;19;129795;-39
2023/05/14 12:25:13;;;;;;;15.68;10.25;;;;;;;21.43;40.85;101661.59;16115928;19;130401;-39
2023/05/14 12:30:38;;;;;;;12.73;9.52;;;;;;;21.47;40.73;101645.28;16118717;19;129504;-40
2023/05/14 12:36:00;;;;;;;15.00;8.97;;;;;;;21.49;40.28;101632.81;16117644;19;130215;-38
2023/05/14 12:41:40;;;;;;;11.05;8.50;;;;;;;21.51;40.16;101627.84;16116137;19;129739;-40
2023/05/14 12:47:03;;;;;;;12.13;8.63;;;;;;;21.54;40.04;101622.88;16120224;19;135610;-39
2023/05/14 12:52:25;;;;;;;11.88;8.10;;;;;;;21.54;39.65;101611.75;16121455;19;131908;-39
2023/05/14 12:58:00;;;;;;;12.13;8.93;;;;;;;21.49;39.98;101613.34;16115532;19;130082;-40
2023/05/14 13:03:22;;;;;;;11.25;8.07;;;;;;;21.47;39.73;101598.78;16113072;19;130164;-39
2023/05/14 13:08:44;;;;;;;15.15;8.00;;;;;;;21.47;39.40;101600.72;16116027;19;129964;-40
2023/05/14 13:14:06;;;;;;;13.93;7.97;;;;;;;21.48;39.68;101594.03;16114741;19;130657;-39
2023/05/14 13:19:28;;;;;;;11.90;8.45;;;;;;;21.48;39.35;101589.34;16116302;19;132189;-38
2023/05/14 13:24:50;;;;;;;10.45;8.10;;;;;;;21.49;39.04;101585.50;16119187;19;129361;-39
2023/05/14 13:30:12;;;;;;;17.65;7.93;;;;;;;21.49;39.23;101577.13;16117083;19;130833;-39
2023/05/14 13:35:34;;;;;;;133.00;17.90;;;;;;;21.50;39.01;101577.97;16113351;19;130126;-39
2023/05/14 13:41:00;;;;;;;136.05;18.80;;;;;;;21.53;38.69;101571.91;16109914;19;129980;-40
2023/05/14 13:46:23;;;;;;;114.43;17.75;;;;;;;21.55;38.38;101568.88;16115559;19;129796;-39
2023/05/14 13:51:45;;;;;;;97.95;16.45;;;;;;;21.56;38.02;101551.06;16108216;19;130621;-39
2023/05/14 13:57:07;;;;;;;80.43;14.90;;;;;;;21.54;38.32;101539.38;16118077;19;133778;-39
2023/05/14 14:02:30;;;;;;;55.70;13.02;;;;;;;21.55;38.08;101541.03;16114162;19;129633;-43
2023/05/14 14:07:54;;;;;;;60.60;11.57;;;;;;;21.55;38.15;101532.66;16114340;19;129718;-40
2023/05/14 14:13:33;;;;;;;43.00;10.52;;;;;;;21.56;37.84;101528.78;16114512;19;130068;-40
2023/05/14 14:18:56;;;;;;;122.75;17.58;;;;;;;21.55;37.50;101525.19;16106868;19;131504;-41
2023/05/14 14:24:18;;;;;;;209.35;24.58;;;;;;;21.55;37.36;101516.81;16112050;19;130033;-41
2023/05/14 14:29:40;;;;;;;157.10;22.45;;;;;;;21.57;37.20;101516.56;16115057;19;129451;-39
2023/05/14 14:35:02;;;;;;;137.35;19.13;;;;;;;21.56;37.06;101517.66;16114897;19;129458;-39
2023/05/14 14:40:25;;;;;;;123.68;16.98;;;;;;;21.55;36.93;101511.25;16111567;19;130935;-41
2023/05/14 14:45:47;;;;;;;98.35;15.57;;;;;;;21.54;36.74;101508.75;16112067;19;129207;-40
2023/05/14 14:51:09;;;;;;;79.03;14.38;;;;;;;21.54;36.59;101505.97;16108746;19;130303;-40
2023/05/14 14:56:32;;;;;;;66.75;12.38;;;;;;;21.55;37.14;101504.84;16108516;19;130214;-39
2023/05/14 15:01:54;;;;;;;52.35;11.90;;;;;;;21.55;36.86;101502.03;16108834;19;131837;-39
2023/05/14 15:07:17;;;;;;;38.95;10.32;;;;;;;21.56;37.40;101507.38;16113288;19;129411;-39
2023/05/14 15:12:39;;;;;;;46.13;9.38;;;;;;;21.56;37.69;101504.59;16112405;19;130067;-39
2023/05/14 15:18:03;;;;;;;43.15;9.48;;;;;;;21.55;38.18;101500.13;16110243;19;130412;-39
2023/05/14 15:23:25;;;;;;;39.25;8.93;;;;;;;21.56;38.09;101498.16;16107851;19;131187;-41
2023/05/14 15:28:46;;;;;;;37.95;8.30;;;;;;;21.55;38.26;101507.63;16110434;19;131648;-42
2023/05/14 15:34:08;;;;;;;36.15;8.38;;;;;;;21.56;38.64;101512.09;16099814;19;132699;-40
2023/05/14 15:39:30;;;;;;;40.90;7.88;;;;;;;21.54;38.86;101506.78;16105193;19;130139;-41
2023/05/14 15:44:52;;;;;;;26.85;6.90;;;;;;;21.51;39.11;101501.72;16105607;19;129241;-39
2023/05/14 15:50:14;;;;;;;28.20;7.35;;;;;;;21.49;39.12;101504.75;16107168;19;129987;-39
2023/05/14 15:55:36;;;;;;;22.92;6.68;;;;;;;21.48;39.87;101504.97;16105017;19;129245;-39
2023/05/14 16:00:58;;;;;;;20.88;6.28;;;;;;;21.46;39.87;101499.66;16105651;19;130926;-39
2023/05/14 16:06:19;;;;;;;20.27;6.30;;;;;;;21.46;40.08;101505.22;16114895;19;130912;-38
2023/05/14 16:11:41;;;;;;;20.35;6.18;;;;;;;21.44;40.16;101507.41;16118548;19;129523;-38
2023/05/14 16:17:03;;;;;;;26.60;6.80;;;;;;;21.45;40.60;101509.09;16119658;19;129966;-40
2023/05/14 16:22:26;;;;;;;17.83;5.38;;;;;;;21.45;40.67;101509.09;16121231;19;130585;-38
2023/05/14 16:27:48;;;;;;;20.42;5.80;;;;;;;21.46;40.46;101507.19;16114432;19;131018;-39
2023/05/14 16:33:10;;;;;;;23.58;6.28;;;;;;;21.48;40.82;101505.81;16110760;19;130499;-38
2023/05/14 16:38:32;;;;;;;21.92;5.85;;;;;;;21.48;40.89;101511.38;16121834;19;131565;-38
2023/05/14 16:43:57;;;;;;;21.23;5.47;;;;;;;21.49;41.12;101504.75;16119833;19;129708;-38
2023/05/14 16:49:21;;;;;;;18.80;5.05;;;;;;;21.48;41.26;101511.38;16118254;19;130092;-38
2023/05/14 16:54:43;;;;;;;18.15;6.30;;;;;;;21.49;41.26;101512.25;16120373;19;130599;-48
2023/05/14 17:00:05;;;;;;;18.27;5.97;;;;;;;21.48;41.37;101510.53;16123474;19;129927;-39
2023/05/14 17:05:27;;;;;;;16.65;6.00;;;;;;;21.49;41.68;101515.91;16123210;19;129923;-40
2023/05/14 17:10:49;;;;;;;15.25;5.22;;;;;;;21.51;41.77;101521.19;16113650;19;130628;-38
2023/05/14 17:16:11;;;;;;;14.38;5.50;;;;;;;21.48;41.74;101519.75;16115522;19;130498;-38
2023/05/14 17:21:33;;;;;;;23.33;5.55;;;;;;;21.48;41.71;101524.44;16117721;19;129480;-38
2023/05/14 17:26:55;;;;;;;15.70;5.30;;;;;;;21.46;41.63;101527.50;16108136;19;129734;-38
2023/05/14 17:32:17;;;;;;;27.55;5.32;;;;;;;21.45;41.47;101533.31;16113416;19;131582;-39
2023/05/14 17:37:41;;;;;;;12.10;4.70;;;;;;;21.43;41.49;101541.91;16114981;19;129716;-38
2023/05/14 17:43:03;;;;;;;13.40;4.65;;;;;;;21.41;41.45;101546.91;16111217;19;130219;-39
2023/05/14 17:48:25;;;;;;;19.08;4.43;;;;;;;21.42;42.00;101545.78;16119856;19;130207;-38
2023/05/14 17:53:46;;;;;;;15.75;4.78;;;;;;;21.43;41.77;101553.03;16115930;19;129433;-38
2023/05/14 17:59:08;;;;;;;25.40;4.78;;;;;;;21.43;42.01;101552.22;16111958;19;130832;-38
2023/05/14 18:04:30;;;;;;;25.30;4.80;;;;;;;21.40;41.86;101558.28;16110993;19;129313;-38
2023/05/14 18:09:52;;;;;;;17.55;4.35;;;;;;;21.36;41.80;101552.38;16112233;19;130548;-38
2023/05/14 18:15:14;;;;;;;17.20;4.47;;;;;;;21.33;41.66;101558.41;16110955;19;131812;-40
2023/05/14 18:20:36;;;;;;;17.27;5.00;;;;;;;21.29;41.51;101572.00;16116283;19;130237;-38
2023/05/14 18:25:58;;;;;;;19.35;4.15;;;;;;;21.27;41.79;101567.78;16109713;19;131228;-39
2023/05/14 18:31:20;;;;;;;23.77;4.43;;;;;;;21.25;41.85;101581.09;16108245;19;130470;-37
2023/05/14 18:36:42;;;;;;;23.50;4.47;;;;;;;21.25;42.20;101581.09;16113265;19;134360;-38
2023/05/14 18:42:04;;;;;;;32.88;5.10;;;;;;;21.23;42.02;101578.56;16106902;19;130883;-39
2023/05/14 18:47:26;;;;;;;29.27;5.05;;;;;;;21.22;42.16;101588.84;16106156;19;130989;-38
2023/05/14 18:52:48;;;;;;;20.48;5.00;;;;;;;21.21;42.36;101584.38;16109918;19;130043;-39
2023/05/14 18:58:10;;;;;;;18.70;4.45;;;;;;;21.20;42.17;101573.50;16104694;19;132931;-39
2023/05/14 19:03:32;;;;;;;31.35;4.45;;;;;;;21.20;42.77;101577.09;16113824;19;129886;-39
2023/05/14 19:08:54;;;;;;;21.88;4.50;;;;;;;21.19;42.30;101577.38;16110346;19;130671;-39
2023/05/14 19:14:16;;;;;;;16.05;4.85;;;;;;;21.17;42.46;101574.81;16103288;19;129390;-39
2023/05/14 19:19:38;;;;;;;16.50;4.70;;;;;;;21.16;42.50;101572.28;16108600;19;130836;-38
2023/05/14 19:25:00;;;;;;;16.45;4.90;;;;;;;21.15;42.61;101588.16;16109824;19;130778;-39
2023/05/14 19:30:22;;;;;;;19.58;4.50;;;;;;;21.13;42.91;101583.91;16111217;19;129557;-39
2023/05/14 19:35:44;;;;;;;13.70;3.47;;;;;;;21.13;42.99;101575.56;16109086;19;131195;-39
2023/05/14 19:41:06;;;;;;;16.33;3.92;;;;;;;21.11;42.67;101581.38;16114423;19;130358;-39
2023/05/14 19:46:28;;;;;;;13.05;4.03;;;;;;;21.11;42.77;101581.38;16128816;19;129445;-40
2023/05/14 19:51:50;;;;;;;14.88;4.00;;;;;;;21.10;42.57;101592.78;16119425;19;129925;-38
2023/05/14 19:57:12;;;;;;;29.63;4.05;;;;;;;21.09;43.09;101605.81;16113741;19;131017;-38
2023/05/14 20:02:33;;;;;;;11.75;3.95;;;;;;;21.08;42.75;101611.66;16124736;19;130858;-38
2023/05/14 20:07:55;;;;;;;13.07;4.10;;;;;;;21.03;43.11;101604.88;16121798;19;130681;-38
2023/05/14 20:13:17;;;;;;;12.40;3.53;;;;;;;21.01;42.78;101607.06;16123249;19;131313;-38
2023/05/14 20:18:42;;;;;;;12.55;3.65;;;;;;;21.00;42.94;101601.75;16124012;19;130567;-38
2023/05/14 20:24:04;;;;;;;10.47;3.77;;;;;;;20.98;43.15;101603.91;16116390;19;130086;-38
2023/05/14 20:29:26;;;;;;;10.02;3.47;;;;;;;20.95;43.03;101609.97;16121879;19;130566;-38
2023/05/14 20:34:48;;;;;;;12.70;4.28;;;;;;;20.89;42.78;101607.09;16120458;19;129641;-38
2023/05/14 20:40:13;;;;;;;9.88;3.40;;;;;;;20.86;43.19;101602.03;16122781;19;129920;-38
2023/05/14 20:45:35;;;;;;;10.77;3.30;;;;;;;20.84;42.80;101604.19;16115427;19;130290;-38
2023/05/14 20:50:57;;;;;;;10.45;3.30;;;;;;;20.85;43.03;101607.84;16116498;19;129522;-40
2023/05/14 20:56:19;;;;;;;8.48;3.28;;;;;;;20.84;43.19;101601.41;16118124;19;131391;-38
2023/05/14 21:01:41;;;;;;;11.68;3.70;;;;;;;20.82;43.39;101597.19;16117236;19;129330;-38
2023/05/14 21:07:04;;;;;;;9.77;3.00;;;;;;;20.81;43.33;101596.34;16118910;19;131190;-38
2023/05/14 21:12:26;;;;;;;8.43;3.20;;;;;;;20.80;43.54;101591.03;16111070;19;129561;-38
2023/05/14 21:17:47;;;;;;;11.57;2.90;;;;;;;20.79;43.39;101594.91;16108045;19;135024;-38
2023/05/14 21:23:09;;;;;;;9.82;3.10;;;;;;;20.77;43.63;101588.72;16108521;19;130350;-38
2023/05/14 21:28:31;;;;;;;12.75;3.40;;;;;;;20.75;43.62;101580.63;16112874;19;130798;-39
2023/05/14 21:33:53;;;;;;;8.07;2.88;;;;;;;20.74;43.97;101581.69;16117820;19;129414;-39
2023/05/14 21:39:15;;;;;;;5.53;2.72;;;;;;;20.73;43.73;101586.44;16113662;19;129744;-38
2023/05/14 21:44:37;;;;;;;7.72;2.65;;;;;;;20.72;43.73;101589.44;16113664;19;129505;-38
2023/05/14 21:49:59;;;;;;;7.85;2.88;;;;;;;20.72;43.59;101589.44;16113505;19;131374;-38
2023/05/14 21:55:21;;;;;;;10.10;3.03;;;;;;;20.71;43.83;101587.75;16110306;19;130472;-39
2023/05/14 22:00:43;;;;;;;6.88;2.90;;;;;;;20.69;44.10;101584.34;16112817;19;130014;-38
2023/05/14 22:06:05;;;;;;;8.45;2.83;;;;;;;20.69;44.08;101595.47;16112241;19;129081;-38
2023/05/14 22:11:27;;;;;;;6.88;2.50;;;;;;;20.66;43.74;101584.88;16118395;19;133438;-38
2023/05/14 22:16:49;;;;;;;11.95;3.15;;;;;;;20.65;44.15;101583.19;16117222;19;129429;-41
2023/05/14 22:22:11;;;;;;;7.35;3.50;;;;;;;20.64;43.75;101587.03;16114697;19;129626;-38
2023/05/14 22:27:33;;;;;;;10.43;3.33;;;;;;;20.63;44.29;101585.34;16114904;19;129770;-39
2023/05/14 22:32:55;;;;;;;6.53;3.15;;;;;;;20.61;43.82;101580.03;16110276;19;130298;-38
2023/05/14 22:38:18;;;;;;;8.98;4.05;;;;;;;20.60;44.14;101565.28;16112957;19;130148;-37
2023/05/14 22:43:40;;;;;;;7.45;3.35;;;;;;;20.57;43.94;101570.50;16114095;19;129337;-38
2023/05/14 22:49:02;;;;;;;6.72;3.95;;;;;;;20.57;43.87;101564.94;16111345;19;132405;-38
2023/05/14 22:54:24;;;;;;;4.97;3.20;;;;;;;20.56;44.09;101557.69;16114171;19;130158;-38
2023/05/14 22:59:46;;;;;;;5.07;3.00;;;;;;;20.55;44.25;101555.97;16114506;19;131571;-38
2023/05/14 23:05:08;;;;;;;4.43;2.63;;;;;;;20.54;44.13;101551.50;16109740;19;129414;-38
2023/05/14 23:10:30;;;;;;;5.95;3.13;;;;;;;20.51;44.02;101533.41;16111409;19;129628;-38
2023/05/14 23:15:52;;;;;;;7.03;3.20;;;;;;;20.51;43.92;101535.31;16108215;19;130114;-38
2023/05/14 23:21:14;;;;;;;4.78;3.28;;;;;;;20.49;44.55;101530.00;16107559;19;129672;-38
2023/05/14 23:26:36;;;;;;;6.20;2.97;;;;;;;20.49;44.54;101530.00;16110205;19;129468;-38
2023/05/14 23:31:58;;;;;;;4.80;2.90;;;;;;;20.47;44.30;101537.75;16107556;19;130859;-38
2023/05/14 23:37:20;;;;;;;4.82;3.08;;;;;;;20.47;44.49;101548.88;16108451;19;130564;-38
2023/05/14 23:42:43;;;;;;;8.48;3.70;;;;;;;20.45;44.03;101528.81;16108458;19;130536;-38
2023/05/14 23:48:05;;;;;;;5.68;3.25;;;;;;;20.44;44.39;101525.19;16109046;19;129873;-38
2023/05/14 23:53:26;;;;;;;6.55;3.30;;;;;;;20.43;44.03;101515.16;16107482;19;130814;-38
2023/05/14 23:58:48;;;;;;;5.75;3.50;;;;;;;20.41;44.04;101506.22;16108556;19;131077;-38
